createdAt,value
2022-12-23T00:00:01.091Z,7.8
2022-12-23T00:02:01.055Z,7.8
2022-12-23T00:05:01.005Z,8
2022-12-23T00:09:00.925Z,7.8
2022-12-23T00:11:00.917Z,8.1
2022-12-23T00:12:00.962Z,8
2022-12-23T00:13:00.975Z,7.9
2022-12-23T00:15:01.096Z,8.1
2022-12-23T00:17:01.037Z,7.9
2022-12-23T00:19:00.947Z,7.9
2022-12-23T00:22:00.913Z,8.1
2022-12-23T00:23:00.948Z,8
2022-12-23T00:25:00.920Z,7.9
2022-12-23T00:27:00.980Z,7.9
2022-12-23T00:29:00.996Z,8
2022-12-23T00:32:01.016Z,7.9
2022-12-23T00:34:00.898Z,7.8
2022-12-23T00:37:00.954Z,7.9
2022-12-23T00:38:00.998Z,8
2022-12-23T00:41:00.922Z,8
2022-12-23T00:47:00.951Z,8
2022-12-23T00:48:00.949Z,7.9
2022-12-23T00:50:00.922Z,7.8
2022-12-23T00:52:00.979Z,7.9
2022-12-23T00:54:00.956Z,7.8
2022-12-23T00:58:00.926Z,7.9
2022-12-23T01:00:00.974Z,7.8
2022-12-23T01:04:01.010Z,7.7
2022-12-23T01:06:00.928Z,7.9
2022-12-23T01:07:01.003Z,7.8
2022-12-23T01:09:01.017Z,8
2022-12-23T01:13:00.959Z,7.7
2022-12-23T01:14:01.005Z,7.9
2022-12-23T01:15:01.104Z,7.8
2022-12-23T01:18:01.028Z,8
2022-12-23T01:23:01.002Z,8
2022-12-23T01:25:00.926Z,7.9
2022-12-23T01:27:00.925Z,7.8
2022-12-23T01:30:01.091Z,7.9
2022-12-23T01:32:01.043Z,7.9
2022-12-23T01:33:01.027Z,8
2022-12-23T01:35:00.935Z,7.9
2022-12-23T01:39:01.014Z,7.8
2022-12-23T01:42:01.139Z,7.8
2022-12-23T01:44:00.927Z,7.7
2022-12-23T01:45:00.951Z,7.8
2022-12-23T01:47:00.960Z,7.9
2022-12-23T01:49:00.939Z,8
2022-12-23T01:50:00.966Z,7.8
2022-12-23T01:54:00.965Z,8
2022-12-23T01:56:00.932Z,7.9
2022-12-23T01:59:00.961Z,7.8
2022-12-23T02:00:01.096Z,7.9
2022-12-23T02:02:01.213Z,7.8
2022-12-23T02:05:00.909Z,7.8
2022-12-23T02:06:00.944Z,7.9
2022-12-23T02:07:01.032Z,7.8
2022-12-23T02:09:00.915Z,8.1
2022-12-23T02:10:00.913Z,7.9
2022-12-23T02:13:00.963Z,8
2022-12-23T02:15:01.047Z,7.9
2022-12-23T02:20:01.104Z,7.9
2022-12-23T02:22:00.960Z,7.8
2022-12-23T02:24:00.964Z,7.9
2022-12-23T02:28:00.943Z,7.7
2022-12-23T02:30:01.105Z,7.8
2022-12-23T02:32:00.936Z,7.6
2022-12-23T02:33:01.014Z,7.8
2022-12-23T02:37:01.022Z,8
2022-12-23T02:40:00.966Z,7.8
2022-12-23T02:43:00.967Z,7.8
2022-12-23T02:44:01.037Z,7.7
2022-12-23T02:45:00.977Z,7.8
2022-12-23T02:48:00.928Z,7.8
2022-12-23T02:51:00.953Z,7.6
2022-12-23T02:53:01.006Z,7.8
2022-12-23T02:56:00.985Z,7.6
2022-12-23T03:03:01.139Z,7.8
2022-12-23T03:05:01.194Z,7.8
2022-12-23T03:10:00.948Z,7.8
2022-12-23T03:11:00.952Z,7.7
2022-12-23T03:13:00.908Z,7.6
2022-12-23T03:14:00.916Z,7.8
2022-12-23T03:15:01.086Z,7.6
2022-12-23T03:17:00.933Z,7.7
2022-12-23T03:18:00.966Z,7.6
2022-12-23T03:20:01.011Z,7.8
2022-12-23T03:23:00.921Z,7.8
2022-12-23T03:24:00.924Z,7.6
2022-12-23T03:25:01.019Z,7.7
2022-12-23T03:27:00.979Z,7.6
2022-12-23T03:28:01.010Z,7.7
2022-12-23T03:31:01.043Z,7.7
2022-12-23T03:33:01.125Z,7.6
2022-12-23T03:35:01.151Z,7.6
2022-12-23T03:37:00.939Z,7.8
2022-12-23T03:38:00.968Z,7.6
2022-12-23T03:40:00.924Z,7.7
2022-12-23T03:43:00.937Z,7.6
2022-12-23T03:44:00.956Z,7.7
2022-12-23T03:46:01.101Z,7.6
2022-12-23T03:48:00.923Z,7.6
2022-12-23T03:49:00.960Z,7.8
2022-12-23T03:51:00.935Z,7.7
2022-12-23T03:52:00.925Z,7.8
2022-12-23T03:53:00.971Z,7.7
2022-12-23T03:57:00.947Z,7.8
2022-12-23T03:59:00.901Z,7.7
2022-12-23T04:00:01.012Z,7.8
2022-12-23T04:02:01.046Z,7.9
2022-12-23T04:03:01.005Z,7.6
2022-12-23T04:06:00.928Z,7.8
2022-12-23T04:07:00.973Z,7.7
2022-12-23T04:09:00.953Z,7.7
2022-12-23T04:10:00.962Z,7.6
2022-12-23T04:12:00.985Z,7.6
2022-12-23T04:13:00.972Z,7.8
2022-12-23T04:18:00.938Z,7.7
2022-12-23T04:20:00.908Z,7.8
2022-12-23T04:21:00.959Z,7.9
2022-12-23T04:22:00.957Z,7.8
2022-12-23T04:24:01.037Z,7.6
2022-12-23T04:26:00.932Z,7.7
2022-12-23T04:27:00.941Z,7.8
2022-12-23T04:29:00.969Z,7.7
2022-12-23T04:30:01.055Z,7.8
2022-12-23T04:32:01.096Z,7.7
2022-12-23T04:34:01.008Z,7.8
2022-12-23T04:35:01.007Z,7.7
2022-12-23T04:37:00.910Z,7.8
2022-12-23T04:39:00.959Z,7.7
2022-12-23T04:41:00.902Z,7.8
2022-12-23T04:45:01.077Z,7.7
2022-12-23T04:47:00.987Z,7.7
2022-12-23T04:49:00.925Z,7.6
2022-12-23T04:50:00.940Z,7.9
2022-12-23T04:51:00.956Z,7.7
2022-12-23T04:52:00.953Z,7.8
2022-12-23T04:55:00.931Z,7.7
2022-12-23T04:57:01.091Z,7.9
2022-12-23T04:59:01.001Z,7.7
2022-12-23T05:00:01.198Z,7.9
2022-12-23T05:02:01.122Z,7.8
2022-12-23T05:03:00.987Z,7.9
2022-12-23T05:04:00.997Z,7.8
2022-12-23T05:07:00.950Z,7.8
2022-12-23T05:09:00.932Z,7.7
2022-12-23T05:10:01.002Z,7.9
2022-12-23T05:11:01.027Z,7.8
2022-12-23T05:21:00.948Z,7.7
2022-12-23T05:23:00.915Z,7.8
2022-12-23T05:25:00.963Z,7.7
2022-12-23T05:27:00.976Z,7.8
2022-12-23T05:33:01.118Z,7.7
2022-12-23T05:37:01.111Z,7.9
2022-12-23T05:39:00.897Z,7.8
2022-12-23T05:42:00.971Z,7.7
2022-12-23T05:46:01.065Z,7.9
2022-12-23T05:48:00.989Z,7.8
2022-12-23T05:52:00.991Z,7.9
2022-12-23T05:55:00.949Z,7.8
2022-12-23T05:58:00.925Z,7.9
2022-12-23T05:59:01.028Z,7.8
2022-12-23T06:02:00.982Z,7.7
2022-12-23T06:03:01.123Z,7.9
2022-12-23T06:05:00.937Z,7.7
2022-12-23T06:08:00.945Z,7.8
2022-12-23T06:10:00.932Z,7.7
2022-12-23T06:11:00.936Z,7.8
2022-12-23T06:13:00.933Z,7.7
2022-12-23T06:15:01.071Z,7.8
2022-12-23T06:17:01.113Z,7.7
2022-12-23T06:19:00.908Z,7.7
2022-12-23T06:21:01.021Z,7.9
2022-12-23T06:24:00.967Z,8
2022-12-23T06:26:00.937Z,7.7
2022-12-23T06:27:00.967Z,7.8
2022-12-23T06:32:01.009Z,7.9
2022-12-23T06:33:01.011Z,7.8
2022-12-23T06:36:00.943Z,7.9
2022-12-23T06:37:00.988Z,7.8
2022-12-23T06:39:00.984Z,7.9
2022-12-23T06:40:00.969Z,7.8
2022-12-23T06:43:00.929Z,7.8
2022-12-23T06:44:00.921Z,7.9
2022-12-23T06:48:00.912Z,8
2022-12-23T06:49:00.986Z,7.9
2022-12-23T06:51:00.994Z,7.9
2022-12-23T06:54:00.926Z,7.9
2022-12-23T06:56:00.920Z,7.8
2022-12-23T06:58:01.125Z,8
2022-12-23T07:00:00.981Z,7.9
2022-12-23T07:02:01.149Z,7.8
2022-12-23T07:03:01.031Z,8.1
2022-12-23T07:06:00.901Z,7.9
2022-12-23T07:07:01.112Z,8
2022-12-23T07:09:00.926Z,8
2022-12-23T07:11:00.912Z,7.9
2022-12-23T07:12:00.913Z,8
2022-12-23T07:16:00.913Z,7.9
2022-12-23T07:17:01.050Z,8
2022-12-23T07:18:00.992Z,7.9
2022-12-23T07:27:00.963Z,7.9
2022-12-23T07:29:01.008Z,8
2022-12-23T07:32:01.004Z,8.1
2022-12-23T07:33:01.048Z,8
2022-12-23T07:35:00.931Z,8
2022-12-23T07:36:00.933Z,8.2
2022-12-23T07:37:00.938Z,8
2022-12-23T07:39:00.918Z,8
2022-12-23T07:40:05.120Z,8.1
2022-12-23T07:41:00.978Z,8
2022-12-23T07:43:00.900Z,8
2022-12-23T07:46:01.317Z,8.1
2022-12-23T07:52:00.951Z,8
2022-12-23T07:53:00.971Z,8.2
2022-12-23T07:54:01.002Z,8.1
2022-12-23T07:57:01.043Z,8
2022-12-23T08:00:01.040Z,8.3
2022-12-23T08:03:01.049Z,8
2022-12-23T08:05:00.968Z,8.2
2022-12-23T08:06:00.987Z,8.1
2022-12-23T08:08:00.938Z,8
2022-12-23T08:09:00.926Z,8.2
2022-12-23T08:12:00.949Z,8.2
2022-12-23T08:14:00.983Z,8.1
2022-12-23T08:15:00.983Z,8.2
2022-12-23T08:18:00.990Z,8.3
2022-12-23T08:25:01.020Z,8.3
2022-12-23T08:27:00.990Z,8.2
2022-12-23T08:29:00.952Z,8.1
2022-12-23T08:31:00.964Z,8.2
2022-12-23T08:43:00.970Z,8.3
2022-12-23T08:49:00.913Z,8.4
2022-12-23T08:50:00.938Z,8.3
2022-12-23T08:51:00.962Z,8.4
2022-12-23T08:53:00.902Z,8.4
2022-12-23T08:54:01.538Z,8.2
2022-12-23T08:56:00.926Z,8.4
2022-12-23T08:57:00.971Z,8.5
2022-12-23T08:59:00.973Z,8.4
2022-12-23T09:00:00.995Z,8.6
2022-12-23T09:02:01.023Z,8.5
2022-12-23T09:04:01.014Z,8.5
2022-12-23T09:06:00.909Z,8.5
2022-12-23T09:07:00.965Z,8.6
2022-12-23T09:09:00.919Z,8.7
2022-12-23T09:10:00.922Z,8.5
2022-12-23T09:14:00.924Z,8.5
2022-12-23T09:15:01.069Z,8.6
2022-12-23T09:17:00.975Z,8.7
2022-12-23T09:19:00.974Z,8.7
2022-12-23T09:21:00.908Z,8.7
2022-12-23T09:25:04.929Z,8.6
2022-12-23T09:26:00.939Z,8.5
2022-12-23T09:27:00.966Z,8.6
2022-12-23T09:30:01.160Z,8.8
2022-12-23T09:32:00.992Z,8.6
2022-12-23T09:33:00.992Z,8.8
2022-12-23T09:35:00.942Z,8.7
2022-12-23T09:36:00.961Z,8.8
2022-12-23T09:41:00.903Z,8.8
2022-12-23T09:42:00.904Z,9
2022-12-23T09:45:00.967Z,9
2022-12-23T09:48:00.912Z,9.1
2022-12-23T09:49:00.912Z,9
2022-12-23T09:50:00.923Z,9.1
2022-12-23T09:56:00.972Z,9.3
2022-12-23T09:58:00.912Z,9.2
2022-12-23T10:00:00.980Z,9.3
2022-12-23T10:01:00.975Z,9.2
2022-12-23T10:02:01.089Z,9.3
2022-12-23T10:04:01.126Z,9.3
2022-12-23T10:06:01.013Z,9.4
2022-12-23T10:07:02.935Z,9.3
2022-12-23T10:09:00.914Z,9.4
2022-12-23T10:11:00.964Z,9.3
2022-12-23T10:13:00.904Z,9.4
2022-12-23T10:14:00.901Z,9.3
2022-12-23T10:17:01.006Z,9.4
2022-12-23T10:24:00.907Z,9.6
2022-12-23T10:25:00.937Z,9.4
2022-12-23T10:26:00.962Z,9.5
2022-12-23T10:27:00.962Z,9.6
2022-12-23T10:30:09.598Z,9.7
2022-12-23T10:32:00.915Z,9.6
2022-12-23T10:33:00.933Z,9.5
2022-12-23T10:37:01.042Z,9.7
2022-12-23T10:39:00.908Z,9.7
2022-12-23T10:43:00.912Z,9.6
2022-12-23T10:49:00.933Z,9.7
2022-12-23T10:52:00.930Z,9.7
2022-12-23T10:53:00.921Z,9.8
2022-12-23T10:54:00.954Z,9.6
2022-12-23T10:56:01.011Z,9.5
2022-12-23T10:58:00.912Z,9.6
2022-12-23T11:00:00.985Z,9.8
2022-12-23T11:03:00.965Z,9.7
2022-12-23T11:04:00.949Z,9.6
2022-12-23T11:05:00.963Z,9.5
2022-12-23T11:07:26.757Z,9.6
2022-12-23T11:10:00.947Z,9.7
2022-12-23T11:12:00.963Z,9.5
2022-12-23T11:14:00.905Z,9.5
2022-12-23T11:15:00.955Z,9.6
2022-12-23T11:19:00.917Z,9.5
2022-12-23T11:20:00.921Z,9.6
2022-12-23T11:21:01.001Z,9.5
2022-12-23T11:22:00.975Z,9.6
2022-12-23T11:25:00.960Z,9.7
2022-12-23T11:26:01.074Z,9.6
2022-12-23T11:28:00.905Z,9.6
2022-12-23T11:29:00.909Z,9.8
2022-12-23T11:31:00.944Z,9.5
2022-12-23T11:34:00.944Z,9.6
2022-12-23T11:37:05.367Z,9.6
2022-12-23T11:39:00.929Z,9.7
2022-12-23T11:42:00.965Z,9.8
2022-12-23T11:45:00.948Z,9.5
2022-12-23T11:46:01.004Z,9.6
2022-12-23T11:47:01.008Z,9.7
2022-12-23T11:49:00.921Z,9.6
2022-12-23T11:54:00.929Z,9.5
2022-12-23T11:55:00.941Z,9.7
2022-12-23T11:57:01.037Z,9.6
2022-12-23T12:00:01.012Z,9.6
2022-12-23T12:02:00.999Z,9.8
2022-12-23T12:07:00.934Z,9.8
2022-12-23T12:09:00.954Z,9.7
2022-12-23T12:12:00.937Z,9.8
2022-12-23T12:13:00.925Z,9.7
2022-12-23T12:14:00.959Z,9.8
2022-12-23T12:15:00.980Z,9.7
2022-12-23T12:17:00.997Z,9.7
2022-12-23T12:18:00.987Z,9.8
2022-12-23T12:20:00.982Z,9.8
2022-12-23T12:24:17.575Z,9.7
2022-12-23T12:25:00.914Z,9.8
2022-12-23T12:27:00.926Z,9.7
2022-12-23T12:31:01.041Z,9.6
2022-12-23T12:36:05.227Z,9.8
2022-12-23T12:37:01.036Z,9.7
2022-12-23T12:40:00.932Z,9.6
2022-12-23T12:41:00.945Z,9.7
2022-12-23T12:42:05.443Z,9.8
2022-12-23T12:45:00.951Z,9.6
2022-12-23T12:49:00.908Z,9.7
2022-12-23T12:51:00.972Z,9.5
2022-12-23T12:52:00.892Z,9.6
2022-12-23T12:53:00.904Z,9.7
2022-12-23T12:56:00.936Z,9.6
2022-12-23T12:58:00.904Z,9.7
2022-12-23T13:00:05.837Z,9.5
2022-12-23T13:01:00.971Z,9.6
2022-12-23T13:03:00.989Z,9.5
2022-12-23T13:05:00.928Z,9.6
2022-12-23T13:06:00.980Z,9.5
2022-12-23T13:09:00.917Z,9.6
2022-12-23T13:10:00.941Z,9.5
2022-12-23T13:12:00.895Z,9.3
2022-12-23T13:13:00.947Z,9.4
2022-12-23T13:14:00.917Z,9.6
2022-12-23T13:17:01.152Z,9.5
2022-12-23T13:26:00.950Z,9.4
2022-12-23T13:27:00.963Z,9.3
2022-12-23T13:28:00.938Z,9.4
2022-12-23T13:32:00.905Z,9.5
2022-12-23T13:33:00.912Z,9.2
2022-12-23T13:35:00.903Z,9.4
2022-12-23T13:36:05.225Z,9.3
2022-12-23T13:37:01.092Z,9.2
2022-12-23T13:38:00.979Z,9.1
2022-12-23T13:40:00.899Z,9.3
2022-12-23T13:41:00.945Z,9.2
2022-12-23T13:43:00.916Z,9.4
2022-12-23T13:44:00.900Z,9.2
2022-12-23T13:45:01.013Z,9.4
2022-12-23T13:48:04.666Z,9.1
2022-12-23T13:52:00.914Z,9.2
2022-12-23T13:53:00.957Z,9.1
2022-12-23T13:56:00.942Z,9.1
2022-12-23T13:59:00.883Z,9.2
2022-12-23T14:04:01.003Z,9
2022-12-23T14:05:01.081Z,9.2
2022-12-23T14:09:01.080Z,8.9
2022-12-23T14:11:00.973Z,9
2022-12-23T14:13:00.990Z,8.9
2022-12-23T14:15:01.132Z,8.8
2022-12-23T14:18:04.211Z,8.9
2022-12-23T14:19:01.055Z,8.7
2022-12-23T14:21:00.935Z,8.8
2022-12-23T14:22:00.952Z,8.6
2022-12-23T14:23:01.003Z,8.8
2022-12-23T14:25:00.994Z,8.6
2022-12-23T14:26:00.960Z,8.7
2022-12-23T14:27:01.030Z,8.8
2022-12-23T14:29:00.952Z,8.7
2022-12-23T14:30:05.413Z,8.6
2022-12-23T14:32:01.010Z,8.5
2022-12-23T14:34:00.994Z,8.6
2022-12-23T14:36:01.026Z,8.5
2022-12-23T14:39:01.001Z,8.4
2022-12-23T14:40:00.972Z,8.5
2022-12-23T14:42:05.872Z,8.6
2022-12-23T14:43:00.959Z,8.4
2022-12-23T14:46:01.032Z,8.3
2022-12-23T14:51:00.993Z,8.4
2022-12-23T14:52:00.981Z,8.2
2022-12-23T14:54:00.970Z,8.2
2022-12-23T14:58:05.846Z,8.1
2022-12-23T14:59:01.009Z,8.2
2022-12-23T15:04:01.682Z,8.1
2022-12-23T15:05:01.005Z,8.2
2022-12-23T15:06:01.019Z,8.1
2022-12-23T15:07:01.046Z,8.2
2022-12-23T15:09:00.909Z,8.1
2022-12-23T15:12:00.944Z,8.2
2022-12-23T15:15:01.059Z,8.2
2022-12-23T15:17:00.952Z,8.1
2022-12-23T15:19:00.918Z,8.2
2022-12-23T15:20:00.951Z,8.1
2022-12-23T15:23:00.924Z,8.1
2022-12-23T15:24:00.959Z,8.2
2022-12-23T15:27:25.732Z,8.1
2022-12-23T15:28:01.725Z,8.2
2022-12-23T15:31:01.001Z,8.2
2022-12-23T15:33:01.185Z,8.1
2022-12-23T15:35:00.943Z,8.1
2022-12-23T15:39:00.971Z,8
2022-12-23T15:40:09.822Z,8.2
2022-12-23T15:41:00.972Z,8.1
2022-12-23T15:43:00.974Z,8
2022-12-23T15:46:00.996Z,8
2022-12-23T15:48:00.920Z,8.1
2022-12-23T15:49:00.910Z,8
2022-12-23T15:50:01.170Z,8.1
2022-12-23T15:55:00.983Z,8
2022-12-23T15:58:00.909Z,8
2022-12-23T15:59:00.934Z,8.1
2022-12-23T16:00:01.120Z,8
2022-12-23T16:03:03.250Z,7.9
2022-12-23T16:06:00.981Z,8
2022-12-23T16:09:01.090Z,8
2022-12-23T16:11:00.933Z,8.1
2022-12-23T16:12:00.922Z,8
2022-12-23T16:13:00.972Z,8.1
2022-12-23T16:16:00.969Z,8
2022-12-23T16:20:00.970Z,8.1
2022-12-23T16:21:01.010Z,8.2
2022-12-23T16:23:00.935Z,8.1
2022-12-23T16:24:00.909Z,8
2022-12-23T16:26:00.965Z,8
2022-12-23T16:27:00.981Z,8.1
2022-12-23T16:33:00.979Z,8.1
2022-12-23T16:35:00.978Z,8
2022-12-23T16:41:00.965Z,8.2
2022-12-23T16:43:00.980Z,8.1
2022-12-23T16:45:01.092Z,8.2
2022-12-23T16:47:00.939Z,8.1
2022-12-23T16:50:00.932Z,8
2022-12-23T16:52:00.931Z,8.1
2022-12-23T16:55:00.922Z,8
2022-12-23T16:56:01.336Z,8.2
2022-12-23T16:57:00.987Z,8
2022-12-23T16:59:00.967Z,8
2022-12-23T17:00:01.095Z,8.1
2022-12-23T17:04:00.914Z,8.1
2022-12-23T17:05:00.928Z,8
2022-12-23T17:07:00.964Z,8.1
2022-12-23T17:11:00.933Z,8.1
2022-12-23T17:12:00.992Z,8.2
2022-12-23T17:14:04.863Z,8
2022-12-23T17:16:00.958Z,8
2022-12-23T17:18:01.005Z,7.9
2022-12-23T17:21:00.909Z,7.9
2022-12-23T17:26:00.906Z,8
2022-12-23T17:27:01.044Z,7.9
2022-12-23T17:29:00.929Z,7.8
2022-12-23T17:31:01.018Z,8
2022-12-23T17:36:00.989Z,7.8
2022-12-23T17:38:01.013Z,8
2022-12-23T17:42:00.919Z,7.8
2022-12-23T17:47:00.960Z,7.9
2022-12-23T17:49:00.966Z,7.9
2022-12-23T17:50:00.987Z,7.7
2022-12-23T17:52:00.942Z,7.7
2022-12-23T17:53:00.923Z,7.9
2022-12-23T17:54:01.031Z,7.7
2022-12-23T17:56:00.970Z,7.7
2022-12-23T17:58:00.937Z,7.8
2022-12-23T17:59:01.004Z,7.9
2022-12-23T18:00:01.079Z,7.8
2022-12-23T18:02:01.097Z,7.8
2022-12-23T18:04:01.155Z,7.9
2022-12-23T18:09:00.910Z,7.9
2022-12-23T18:10:00.916Z,7.8
2022-12-23T18:12:00.905Z,7.9
2022-12-23T18:13:00.902Z,8
2022-12-23T18:14:00.913Z,7.7
2022-12-23T18:15:00.991Z,7.8
2022-12-23T18:17:01.016Z,7.9
2022-12-23T18:19:00.980Z,7.8
2022-12-23T18:21:00.925Z,7.9
2022-12-23T18:24:00.902Z,7.9
2022-12-23T18:25:01.009Z,7.8
2022-12-23T18:26:00.930Z,8
2022-12-23T18:27:00.972Z,7.9
2022-12-23T18:28:01.009Z,7.8
2022-12-23T18:32:01.001Z,7.9
2022-12-23T18:33:01.002Z,7.8
2022-12-23T18:35:00.941Z,7.7
2022-12-23T18:36:00.964Z,7.8
2022-12-23T18:40:00.969Z,8
2022-12-23T18:43:00.969Z,7.9
2022-12-23T18:45:01.001Z,7.8
2022-12-23T18:48:00.955Z,7.9
2022-12-23T18:50:00.924Z,7.8
2022-12-23T18:51:00.972Z,7.9
2022-12-23T18:53:01.089Z,7.9
2022-12-23T18:55:00.947Z,7.8
2022-12-23T19:07:01.025Z,8
2022-12-23T19:09:00.980Z,7.9
2022-12-23T19:10:00.957Z,7.8
2022-12-23T19:13:00.978Z,7.9
2022-12-23T19:14:00.963Z,7.8
2022-12-23T19:17:00.983Z,7.9
2022-12-23T19:18:00.997Z,7.8
2022-12-23T19:20:00.951Z,7.8
2022-12-23T19:22:00.981Z,7.9
2022-12-23T19:23:01.105Z,8
2022-12-23T19:25:05.648Z,7.8
2022-12-23T19:29:01.011Z,7.9
2022-12-23T19:30:01.113Z,7.8
2022-12-23T19:31:01.110Z,7.7
2022-12-23T19:35:01.055Z,8
2022-12-23T19:38:00.968Z,8
2022-12-23T19:44:01.143Z,7.9
2022-12-23T19:45:01.755Z,8.1
2022-12-23T19:50:01.013Z,7.9
2022-12-23T19:51:01.059Z,8
2022-12-23T19:54:01.082Z,8.1
2022-12-23T19:59:01.151Z,8
2022-12-23T20:00:01.412Z,8.2
2022-12-23T20:02:01.004Z,8.1
2022-12-23T20:03:00.976Z,8.2
2022-12-23T20:04:00.977Z,8.1
2022-12-23T20:06:00.945Z,8.2
2022-12-23T20:09:01.325Z,8.3
2022-12-23T20:10:00.934Z,8.2
2022-12-23T20:12:00.954Z,8.1
2022-12-23T20:14:00.977Z,8.3
2022-12-23T20:16:00.995Z,8.2
2022-12-23T20:18:00.944Z,8.2
2022-12-23T20:21:00.973Z,8.3
2022-12-23T20:25:00.956Z,8.4
2022-12-23T20:26:00.948Z,8.3
2022-12-23T20:28:00.986Z,8.4
2022-12-23T20:30:01.096Z,8.5
2022-12-23T20:35:00.939Z,8.5
2022-12-23T20:37:00.935Z,8.6
2022-12-23T20:39:00.947Z,8.5
2022-12-23T20:40:00.981Z,8.6
2022-12-23T20:41:00.967Z,8.7
2022-12-23T20:43:00.976Z,8.6
2022-12-23T20:45:00.980Z,8.7
2022-12-23T20:49:00.938Z,8.9
2022-12-23T20:52:00.936Z,8.8
2022-12-23T20:54:00.933Z,8.9
2022-12-23T20:55:00.951Z,9
2022-12-23T20:56:00.963Z,9.1
2022-12-23T20:57:01.043Z,9
2022-12-23T21:03:06.869Z,9.3
2022-12-23T21:04:00.979Z,9.2
2022-12-23T21:06:00.939Z,9.3
2022-12-23T21:07:00.970Z,9.2
2022-12-23T21:08:01.003Z,9.3
2022-12-23T21:10:00.942Z,9.3
2022-12-23T21:13:00.951Z,9.4
2022-12-23T21:16:00.952Z,9.3
2022-12-23T21:17:00.943Z,9.4
2022-12-23T21:18:00.958Z,9.3
2022-12-23T21:22:00.938Z,9.4
2022-12-23T21:23:00.976Z,9.5
2022-12-23T21:25:00.913Z,9.5
2022-12-23T21:26:00.921Z,9.4
2022-12-23T21:27:00.986Z,9.3
2022-12-23T21:30:01.177Z,9.2
2022-12-23T21:32:00.992Z,9.3
2022-12-23T21:34:00.908Z,9.4
2022-12-23T21:36:00.955Z,9.3
2022-12-23T21:38:00.976Z,9.2
2022-12-23T21:40:00.969Z,9.4
2022-12-23T21:41:00.949Z,9.2
2022-12-23T21:42:00.932Z,9.3
2022-12-23T21:45:01.022Z,9.2
2022-12-23T21:47:00.957Z,9.1
2022-12-23T21:48:00.990Z,9.2
2022-12-23T21:50:00.964Z,9.1
2022-12-23T21:52:00.925Z,9
2022-12-23T21:54:00.932Z,9.1
2022-12-23T21:55:00.956Z,9.2
2022-12-23T21:58:00.959Z,9.1
2022-12-23T22:02:00.962Z,9.1
2022-12-23T22:04:00.934Z,9.2
2022-12-23T22:05:00.949Z,9.1
2022-12-23T22:06:03.345Z,9
2022-12-23T22:11:00.995Z,9.1
2022-12-23T22:13:00.932Z,9
2022-12-23T22:14:01.003Z,8.9
2022-12-23T22:16:01.004Z,8.9
2022-12-23T22:19:00.922Z,9
2022-12-23T22:21:00.908Z,8.9
2022-12-23T22:23:01.017Z,9
2022-12-23T22:28:00.917Z,9
2022-12-23T22:30:01.008Z,8.9
2022-12-23T22:32:00.950Z,8.9
2022-12-23T22:36:01.090Z,8.8
2022-12-23T22:37:00.975Z,9
2022-12-23T22:41:00.953Z,8.9
2022-12-23T22:43:00.950Z,8.9
2022-12-23T22:45:00.972Z,9
2022-12-23T22:47:00.971Z,9
2022-12-23T22:49:00.895Z,9.1
2022-12-23T22:51:00.954Z,9
2022-12-23T22:53:01.079Z,9
2022-12-23T22:54:00.905Z,9.1
2022-12-23T22:56:00.913Z,9
2022-12-23T22:57:01.043Z,9.1
2022-12-23T23:04:00.968Z,9.4
2022-12-23T23:05:00.953Z,9.1
2022-12-23T23:06:00.996Z,9.3
2022-12-23T23:07:00.921Z,9.4
2022-12-23T23:10:00.902Z,9.2
2022-12-23T23:12:00.910Z,9.4
2022-12-23T23:13:00.926Z,9.3
2022-12-23T23:14:00.940Z,9.4
2022-12-23T23:15:00.965Z,9.3
2022-12-23T23:17:00.994Z,9.4
2022-12-23T23:19:00.926Z,9.4
2022-12-23T23:23:00.909Z,9.3
2022-12-23T23:26:00.922Z,9.3
2022-12-23T23:27:00.940Z,9.2
2022-12-23T23:32:00.944Z,9.3
2022-12-23T23:34:00.913Z,9.2
2022-12-23T23:35:05.381Z,9.3
2022-12-23T23:38:00.938Z,9.4
2022-12-23T23:42:00.957Z,9.2
2022-12-23T23:44:00.970Z,9.3
2022-12-23T23:46:00.980Z,9.3
2022-12-23T23:47:00.970Z,9.4
2022-12-23T23:49:00.924Z,9.3
2022-12-23T23:52:00.894Z,9.2
2022-12-23T23:55:00.911Z,9.1
2022-12-23T23:56:00.924Z,9.2
2022-12-23T23:57:00.966Z,9.1
